Time;durP1;ratioP1;P1;durP2;ratioP2;P2;SDS_P1;SDS_P2;PMS_P1;PMS_P2;Temp;Humidity;BMP_temperature;BMP_pressure;BME280_temperature;BME280_humidity;BME280_pressure;Samples;Min_cycle;Max_cycle;Signal;HPM_P1;HPM_P2
2021/11/15 00:02:02;;;;;;;11.15;4.72;;;;;;;;;;5110735;28;20479;-67
2021/11/15 00:04:28;;;;;;;9.65;4.50;;;;;;;;;;5110024;28;20032;-66
2021/11/15 00:06:55;;;;;;;8.63;4.80;;;;;;;;;;5112129;28;20125;-67
2021/11/15 00:09:21;;;;;;;10.15;4.78;;;;;;;;;;5112225;28;20414;-67
2021/11/15 00:11:47;;;;;;;8.60;4.50;;;;;;;;;;5110477;28;20115;-67
2021/11/15 00:14:13;;;;;;;11.13;4.50;;;;;;;;;;5112455;28;20114;-67
2021/11/15 00:16:39;;;;;;;8.30;4.95;;;;;;;;;;5110142;28;20120;-66
2021/11/15 00:19:05;;;;;;;8.50;3.40;;;;;;;;;;5111962;28;20019;-67
2021/11/15 00:21:31;;;;;;;8.18;3.72;;;;;;;;;;5113913;28;20043;-67
2021/11/15 00:23:57;;;;;;;5.05;3.03;;;;;;;;;;5109708;28;20471;-67
2021/11/15 00:26:24;;;;;;;10.75;3.47;;;;;;;;;;5110162;28;20378;-66
2021/11/15 00:28:50;;;;;;;5.22;2.45;;;;;;;;;;5109457;28;20089;-66
2021/11/15 00:31:16;;;;;;;6.03;2.58;;;;;;;;;;5110267;28;20507;-66
2021/11/15 00:33:42;;;;;;;10.13;4.85;;;;;;;;;;5112747;28;20028;-66
2021/11/15 00:36:08;;;;;;;7.22;4.07;;;;;;;;;;5109718;28;20128;-66
2021/11/15 00:38:34;;;;;;;7.38;3.42;;;;;;;;;;5110002;28;20030;-67
2021/11/15 00:41:00;;;;;;;7.05;3.67;;;;;;;;;;5109343;28;20058;-67
2021/11/15 00:43:26;;;;;;;8.65;4.03;;;;;;;;;;5111483;28;20618;-66
2021/11/15 00:45:52;;;;;;;8.82;4.55;;;;;;;;;;5112946;28;20028;-67
2021/11/15 00:48:18;;;;;;;9.98;5.20;;;;;;;;;;5110016;28;20028;-66
2021/11/15 00:50:44;;;;;;;10.68;4.90;;;;;;;;;;5109454;28;20028;-66
2021/11/15 00:53:10;;;;;;;7.03;3.78;;;;;;;;;;5109273;28;20024;-67
2021/11/15 00:55:36;;;;;;;9.77;4.50;;;;;;;;;;5109179;28;20042;-67
2021/11/15 00:58:05;;;;;;;15.30;3.70;;;;;;;;;;5111601;28;20020;-67
2021/11/15 01:00:31;;;;;;;9.40;4.18;;;;;;;;;;5110264;28;20085;-66
2021/11/15 01:02:59;;;;;;;10.65;3.83;;;;;;;;;;5109558;28;20027;-66
2021/11/15 01:05:27;;;;;;;5.22;2.97;;;;;;;;;;5109515;28;20032;-66
2021/11/15 01:07:53;;;;;;;3.95;2.00;;;;;;;;;;5109612;28;20028;-67
2021/11/15 01:10:21;;;;;;;4.15;2.20;;;;;;;;;;5092347;28;20115;-67
2021/11/15 01:12:47;;;;;;;154.95;6.72;;;;;;;;;;5108134;28;20371;-66
2021/11/15 01:15:14;;;;;;;373.85;12.48;;;;;;;;;;5111039;28;20479;-66
2021/11/15 01:17:41;;;;;;;159.02;7.63;;;;;;;;;;5108713;28;20423;-69
2021/11/15 01:20:08;;;;;;;157.30;6.85;;;;;;;;;;5108600;28;20076;-68
2021/11/15 01:22:34;;;;;;;62.28;5.97;;;;;;;;;;5109216;28;20020;-68
2021/11/15 01:25:00;;;;;;;18.00;6.68;;;;;;;;;;5111144;28;20048;-68
2021/11/15 01:27:26;;;;;;;13.82;5.47;;;;;;;;;;5109923;28;20059;-68
2021/11/15 01:29:52;;;;;;;12.50;5.90;;;;;;;;;;5108767;28;20022;-68
2021/11/15 01:32:19;;;;;;;26.27;7.18;;;;;;;;;;5108033;28;20035;-68
2021/11/15 01:34:45;;;;;;;40.28;7.05;;;;;;;;;;5108797;28;20067;-68
2021/11/15 01:37:11;;;;;;;55.90;6.60;;;;;;;;;;5110030;28;20070;-68
2021/11/15 01:39:37;;;;;;;109.93;7.55;;;;;;;;;;5111145;28;20020;-68
2021/11/15 01:42:03;;;;;;;136.10;7.28;;;;;;;;;;5107880;28;20024;-68
2021/11/15 01:44:30;;;;;;;57.80;6.15;;;;;;;;;;5110803;28;20025;-67
2021/11/15 01:46:56;;;;;;;39.65;5.80;;;;;;;;;;5108636;28;20031;-68
2021/11/15 01:49:22;;;;;;;18.65;4.50;;;;;;;;;;5108370;28;20024;-68
2021/11/15 01:51:48;;;;;;;12.40;4.30;;;;;;;;;;5111557;28;20380;-68
2021/11/15 01:54:14;;;;;;;101.72;6.13;;;;;;;;;;5108722;28;20043;-68
2021/11/15 01:56:40;;;;;;;251.32;8.25;;;;;;;;;;5108106;28;20039;-68
2021/11/15 01:59:07;;;;;;;205.23;7.07;;;;;;;;;;5108616;28;20104;-68
2021/11/15 02:01:33;;;;;;;123.68;5.57;;;;;;;;;;5108359;28;20028;-68
2021/11/15 02:04:00;;;;;;;157.95;6.65;;;;;;;;;;5109670;28;20043;-68
2021/11/15 02:06:27;;;;;;;35.97;4.90;;;;;;;;;;5109550;28;20081;-68
2021/11/15 02:08:53;;;;;;;80.95;5.82;;;;;;;;;;5108503;28;20033;-67
2021/11/15 02:11:19;;;;;;;109.78;5.93;;;;;;;;;;5107712;28;20023;-67
2021/11/15 02:13:46;;;;;;;80.22;6.18;;;;;;;;;;5110559;28;20405;-68
2021/11/15 02:16:12;;;;;;;94.78;6.47;;;;;;;;;;5109080;28;20050;-67
2021/11/15 02:18:39;;;;;;;55.90;5.25;;;;;;;;;;5110325;28;20060;-67
2021/11/15 02:21:06;;;;;;;25.13;4.20;;;;;;;;;;5108121;28;20398;-67
2021/11/15 02:23:33;;;;;;;34.08;4.25;;;;;;;;;;5107570;28;20027;-67
2021/11/15 02:26:00;;;;;;;18.27;4.57;;;;;;;;;;5108328;28;20503;-68
2021/11/15 02:28:28;;;;;;;55.78;4.28;;;;;;;;;;5107682;28;20028;-68
2021/11/15 02:30:54;;;;;;;118.90;5.13;;;;;;;;;;5112860;28;20048;-67
2021/11/15 02:33:20;;;;;;;64.28;4.05;;;;;;;;;;5112600;28;20106;-67
2021/11/15 02:35:46;;;;;;;35.83;3.63;;;;;;;;;;5112381;28;20080;-67
2021/11/15 02:38:12;;;;;;;248.30;8.32;;;;;;;;;;5111551;28;20510;-67
2021/11/15 02:40:38;;;;;;;77.30;5.13;;;;;;;;;;5112215;28;20107;-67
2021/11/15 02:43:05;;;;;;;26.08;4.05;;;;;;;;;;5112908;28;20031;-67
2021/11/15 02:45:31;;;;;;;28.75;3.75;;;;;;;;;;5113257;28;20024;-67
2021/11/15 02:47:58;;;;;;;28.00;4.38;;;;;;;;;;5112166;28;20016;-67
2021/11/15 02:50:26;;;;;;;27.23;3.40;;;;;;;;;;5111984;28;20023;-67
2021/11/15 02:52:53;;;;;;;32.03;3.88;;;;;;;;;;5111301;28;20098;-67
2021/11/15 02:55:19;;;;;;;10.57;3.53;;;;;;;;;;5111496;28;20099;-68
2021/11/15 02:57:45;;;;;;;7.97;3.80;;;;;;;;;;5114891;28;20635;-68
2021/11/15 03:00:26;;;;;;;7.85;3.55;;;;;;;;;;5111760;28;20073;-68
2021/11/15 03:02:54;;;;;;;5.45;2.90;;;;;;;;;;5111871;28;20012;-67
2021/11/15 03:05:24;;;;;;;18.15;3.17;;;;;;;;;;5111282;28;20060;-67
2021/11/15 03:07:50;;;;;;;9.60;3.20;;;;;;;;;;5110956;28;20030;-67
2021/11/15 03:10:16;;;;;;;36.15;4.38;;;;;;;;;;5112513;28;20150;-68
2021/11/15 03:12:42;;;;;;;49.47;4.20;;;;;;;;;;5114328;28;20083;-68
2021/11/15 03:15:09;;;;;;;164.90;6.72;;;;;;;;;;5113517;28;20084;-68
2021/11/15 03:17:39;;;;;;;45.75;5.70;;;;;;;;;;5110987;28;20058;-68
2021/11/15 03:20:06;;;;;;;164.73;7.20;;;;;;;;;;5111654;28;20024;-68
2021/11/15 03:22:32;;;;;;;157.85;7.65;;;;;;;;;;5111145;28;20036;-67
2021/11/15 03:24:58;;;;;;;7.55;3.83;;;;;;;;;;5113746;28;20080;-67
2021/11/15 03:27:24;;;;;;;10.30;4.30;;;;;;;;;;5112182;28;20532;-67
2021/11/15 03:29:50;;;;;;;8.23;4.07;;;;;;;;;;5111106;28;20028;-67
2021/11/15 03:32:16;;;;;;;13.23;4.53;;;;;;;;;;5110946;28;20036;-67
2021/11/15 03:34:42;;;;;;;9.50;3.85;;;;;;;;;;5105130;28;20099;-67
2021/11/15 03:37:09;;;;;;;24.65;4.78;;;;;;;;;;5112852;28;20114;-67
2021/11/15 03:39:35;;;;;;;18.57;4.47;;;;;;;;;;5112745;28;20022;-67
2021/11/15 03:42:01;;;;;;;6.90;3.80;;;;;;;;;;5110437;28;20264;-67
2021/11/15 03:44:27;;;;;;;6.75;3.58;;;;;;;;;;5113143;28;20031;-67
2021/11/15 03:46:53;;;;;;;90.95;5.43;;;;;;;;;;5110802;28;20266;-67
2021/11/15 03:49:19;;;;;;;361.67;10.80;;;;;;;;;;5104474;28;20459;-66
2021/11/15 03:51:45;;;;;;;35.95;4.60;;;;;;;;;;5113040;28;20031;-67
2021/11/15 03:54:12;;;;;;;19.90;5.00;;;;;;;;;;5110631;28;20073;-67
2021/11/15 03:56:38;;;;;;;44.67;6.18;;;;;;;;;;5110793;28;20030;-67
2021/11/15 03:59:09;;;;;;;33.97;5.57;;;;;;;;;;5110881;28;20035;-67
2021/11/15 04:01:35;;;;;;;47.72;5.88;;;;;;;;;;5110524;28;20024;-67
2021/11/15 04:04:04;;;;;;;37.80;5.07;;;;;;;;;;5112673;28;20356;-64
2021/11/15 04:06:31;;;;;;;17.15;6.20;;;;;;;;;;5111477;28;20036;-64
2021/11/15 04:08:58;;;;;;;11.00;5.73;;;;;;;;;;5110668;28;20028;-64
2021/11/15 04:11:26;;;;;;;11.90;5.30;;;;;;;;;;5110185;28;20387;-64
2021/11/15 04:13:54;;;;;;;9.00;5.05;;;;;;;;;;5112265;28;20035;-64
2021/11/15 04:16:20;;;;;;;8.10;3.65;;;;;;;;;;5094576;28;20048;-64
2021/11/15 04:18:57;;;;;;;7.22;3.83;;;;;;;;;;5113470;28;20048;-64
2021/11/15 04:21:23;;;;;;;7.05;3.85;;;;;;;;;;5113286;28;20110;-64
2021/11/15 04:23:49;;;;;;;11.63;3.92;;;;;;;;;;5110091;28;20049;-64
2021/11/15 04:26:15;;;;;;;143.68;6.95;;;;;;;;;;5109602;28;20027;-64
2021/11/15 04:28:41;;;;;;;115.28;7.82;;;;;;;;;;5110233;28;20012;-64
2021/11/15 04:31:07;;;;;;;13.27;5.20;;;;;;;;;;5112349;28;20620;-64
2021/11/15 04:33:33;;;;;;;11.10;5.20;;;;;;;;;;5110766;28;20023;-64
2021/11/15 04:35:59;;;;;;;14.40;5.95;;;;;;;;;;5109498;28;20042;-64
2021/11/15 04:38:25;;;;;;;9.82;5.75;;;;;;;;;;5110670;28;20020;-65
2021/11/15 04:40:52;;;;;;;9.50;4.90;;;;;;;;;;5107825;28;20604;-65
2021/11/15 04:43:18;;;;;;;8.95;5.28;;;;;;;;;;5105311;28;20149;-65
2021/11/15 04:45:44;;;;;;;13.07;6.28;;;;;;;;;;5108135;28;20308;-65
2021/11/15 04:48:11;;;;;;;10.90;6.10;;;;;;;;;;5105550;28;20020;-65
2021/11/15 04:50:37;;;;;;;10.80;4.82;;;;;;;;;;5110924;28;20020;-63
2021/11/15 04:53:03;;;;;;;7.60;4.97;;;;;;;;;;5108320;28;20065;-65
2021/11/15 04:55:29;;;;;;;8.63;4.78;;;;;;;;;;5109831;28;20028;-65
2021/11/15 04:57:56;;;;;;;7.25;4.40;;;;;;;;;;5112040;28;20030;-63
2021/11/15 05:00:24;;;;;;;10.00;5.03;;;;;;;;;;5110131;28;20035;-64
2021/11/15 05:02:50;;;;;;;10.75;4.57;;;;;;;;;;5109276;28;20058;-64
2021/11/15 05:05:17;;;;;;;7.82;4.53;;;;;;;;;;5110104;28;20189;-64
2021/11/15 05:07:44;;;;;;;7.65;4.28;;;;;;;;;;5107686;28;20019;-64
2021/11/15 05:10:10;;;;;;;7.20;4.30;;;;;;;;;;5111276;28;20023;-64
2021/11/15 05:12:37;;;;;;;8.32;4.10;;;;;;;;;;5111021;28;20094;-64
2021/11/15 05:15:07;;;;;;;6.05;3.47;;;;;;;;;;5110323;28;20040;-64
2021/11/15 05:17:33;;;;;;;9.18;5.25;;;;;;;;;;5108616;28;20451;-64
2021/11/15 05:19:59;;;;;;;8.02;4.35;;;;;;;;;;5109100;28;20531;-64
2021/11/15 05:22:25;;;;;;;11.57;5.00;;;;;;;;;;5109119;28;20332;-64
2021/11/15 05:24:51;;;;;;;10.40;5.00;;;;;;;;;;5111659;28;20028;-64
2021/11/15 05:27:17;;;;;;;9.82;5.15;;;;;;;;;;5111017;28;20020;-64
2021/11/15 05:29:44;;;;;;;7.55;4.78;;;;;;;;;;5108945;28;20024;-64
2021/11/15 05:32:10;;;;;;;7.18;4.47;;;;;;;;;;5107717;28;20046;-64
2021/11/15 05:34:36;;;;;;;8.07;4.68;;;;;;;;;;5108345;28;20074;-64
2021/11/15 05:37:02;;;;;;;8.88;4.65;;;;;;;;;;5111274;28;20024;-64
2021/11/15 05:39:28;;;;;;;9.55;4.85;;;;;;;;;;5109974;28;20050;-64
2021/11/15 05:41:57;;;;;;;9.27;5.68;;;;;;;;;;5108396;28;20042;-64
2021/11/15 05:44:23;;;;;;;8.32;5.05;;;;;;;;;;5110013;28;20102;-64
2021/11/15 05:46:49;;;;;;;12.63;5.78;;;;;;;;;;5108303;28;20149;-64
2021/11/15 05:49:15;;;;;;;13.95;6.20;;;;;;;;;;5109767;28;20028;-64
2021/11/15 05:51:41;;;;;;;11.13;5.72;;;;;;;;;;5111099;28;20018;-65
2021/11/15 05:54:07;;;;;;;7.95;4.95;;;;;;;;;;5107738;28;20069;-64
2021/11/15 05:56:33;;;;;;;8.43;4.82;;;;;;;;;;5108654;28;20023;-65
2021/11/15 05:58:59;;;;;;;4.40;2.80;;;;;;;;;;5108539;28;20023;-66
2021/11/15 06:01:25;;;;;;;5.53;3.30;;;;;;;;;;5108512;28;20102;-64
2021/11/15 06:03:51;;;;;;;14.35;4.93;;;;;;;;;;5111593;28;20550;-65
2021/11/15 06:06:18;;;;;;;9.75;4.85;;;;;;;;;;5108851;28;20027;-64
2021/11/15 06:08:44;;;;;;;12.25;6.30;;;;;;;;;;5108519;28;20486;-64
2021/11/15 06:11:09;;;;;;;10.43;5.20;;;;;;;;;;5109794;28;20034;-64
2021/11/15 06:13:36;;;;;;;13.93;6.47;;;;;;;;;;5110530;28;20078;-64
2021/11/15 06:16:02;;;;;;;13.88;5.65;;;;;;;;;;5110303;28;20043;-64
2021/11/15 06:18:28;;;;;;;9.38;5.10;;;;;;;;;;5108799;28;20020;-64
2021/11/15 06:20:54;;;;;;;14.18;6.32;;;;;;;;;;5108175;28;20031;-64
2021/11/15 06:23:20;;;;;;;13.05;6.22;;;;;;;;;;5107978;28;20070;-64
2021/11/15 06:25:46;;;;;;;12.68;6.60;;;;;;;;;;5108204;28;20487;-64
2021/11/15 06:28:12;;;;;;;11.93;5.82;;;;;;;;;;5109387;28;20391;-64
2021/11/15 06:30:38;;;;;;;12.55;6.72;;;;;;;;;;5110039;28;20111;-64
2021/11/15 06:33:04;;;;;;;11.55;6.18;;;;;;;;;;5107701;28;20507;-64
2021/11/15 06:35:30;;;;;;;12.00;5.68;;;;;;;;;;5102023;28;20411;-65
2021/11/15 06:37:57;;;;;;;11.80;5.00;;;;;;;;;;5108166;28;20028;-64
2021/11/15 06:40:23;;;;;;;7.93;4.20;;;;;;;;;;5107747;28;20550;-64
2021/11/15 06:42:49;;;;;;;8.60;4.90;;;;;;;;;;5111451;28;20061;-64
2021/11/15 06:45:16;;;;;;;7.72;4.82;;;;;;;;;;5109844;28;20390;-65
2021/11/15 06:47:42;;;;;;;9.20;5.00;;;;;;;;;;5107977;28;20027;-65
2021/11/15 06:50:09;;;;;;;8.98;4.95;;;;;;;;;;5107091;28;20059;-65
2021/11/15 06:52:35;;;;;;;6.55;3.72;;;;;;;;;;5108000;28;20024;-65
2021/11/15 06:55:02;;;;;;;7.95;4.60;;;;;;;;;;5110027;28;20084;-65
2021/11/15 06:57:29;;;;;;;7.70;4.93;;;;;;;;;;5109306;28;20410;-65
2021/11/15 06:59:55;;;;;;;8.90;4.97;;;;;;;;;;5107890;28;20408;-66
2021/11/15 07:02:22;;;;;;;12.57;6.40;;;;;;;;;;5109316;28;20028;-67
2021/11/15 07:04:48;;;;;;;11.18;6.20;;;;;;;;;;5107212;28;20186;-63
2021/11/15 07:07:14;;;;;;;11.52;6.25;;;;;;;;;;5109069;28;20094;-63
2021/11/15 07:09:41;;;;;;;10.63;6.20;;;;;;;;;;5108569;28;20024;-63
2021/11/15 07:12:07;;;;;;;8.77;5.45;;;;;;;;;;5109616;28;20036;-63
2021/11/15 07:14:33;;;;;;;11.00;5.18;;;;;;;;;;5107980;28;20023;-63
2021/11/15 07:16:59;;;;;;;12.45;5.88;;;;;;;;;;5109276;28;20055;-63
2021/11/15 07:19:25;;;;;;;10.50;6.05;;;;;;;;;;5113099;28;20139;-63
2021/11/15 07:21:51;;;;;;;11.20;5.70;;;;;;;;;;5114462;28;20035;-63
2021/11/15 07:24:17;;;;;;;8.32;5.22;;;;;;;;;;5110404;28;20023;-63
2021/11/15 07:26:43;;;;;;;10.68;4.85;;;;;;;;;;5111397;28;20030;-63
2021/11/15 07:29:09;;;;;;;7.75;4.63;;;;;;;;;;5111171;28;20042;-63
2021/11/15 07:31:38;;;;;;;9.30;5.05;;;;;;;;;;5113409;28;20502;-63
2021/11/15 07:34:04;;;;;;;8.23;4.72;;;;;;;;;;5113284;28;20505;-63
2021/11/15 07:36:32;;;;;;;6.63;4.05;;;;;;;;;;5111040;28;20040;-63
2021/11/15 07:38:58;;;;;;;8.93;5.25;;;;;;;;;;5113379;28;20020;-63
2021/11/15 07:41:24;;;;;;;8.18;4.97;;;;;;;;;;5112485;28;20032;-63
2021/11/15 07:43:50;;;;;;;10.02;6.00;;;;;;;;;;5111953;28;20090;-63
2021/11/15 07:46:16;;;;;;;10.90;5.72;;;;;;;;;;5111542;28;20024;-63
2021/11/15 07:48:42;;;;;;;10.02;5.97;;;;;;;;;;5112310;28;20034;-63
2021/11/15 07:51:08;;;;;;;12.55;6.45;;;;;;;;;;5110318;28;20015;-62
2021/11/15 07:53:37;;;;;;;9.70;6.22;;;;;;;;;;5111603;28;20077;-64
2021/11/15 07:56:06;;;;;;;12.18;5.68;;;;;;;;;;5112162;27;20114;-63
2021/11/15 07:58:33;;;;;;;9.20;6.03;;;;;;;;;;5109996;28;20020;-63
2021/11/15 08:00:59;;;;;;;8.73;5.65;;;;;;;;;;5113191;28;20035;-63
2021/11/15 08:03:25;;;;;;;12.00;8.43;;;;;;;;;;5112537;28;20028;-63
2021/11/15 08:05:51;;;;;;;11.10;8.30;;;;;;;;;;5110253;28;20034;-63
2021/11/15 08:08:17;;;;;;;14.25;7.75;;;;;;;;;;5108449;28;20019;-63
2021/11/15 08:10:43;;;;;;;10.68;7.28;;;;;;;;;;5111360;28;20072;-63
2021/11/15 08:13:09;;;;;;;9.52;6.28;;;;;;;;;;5112519;28;20027;-63
2021/11/15 08:15:35;;;;;;;11.15;6.40;;;;;;;;;;5113914;28;20042;-63
2021/11/15 08:18:04;;;;;;;13.88;6.80;;;;;;;;;;5110274;28;20020;-63
2021/11/15 08:20:32;;;;;;;13.95;8.02;;;;;;;;;;5109483;27;20019;-63
2021/11/15 08:23:01;;;;;;;13.45;8.82;;;;;;;;;;5110375;28;20020;-63
2021/11/15 08:25:27;;;;;;;11.25;7.68;;;;;;;;;;5110421;28;20373;-63
2021/11/15 08:27:54;;;;;;;11.68;6.85;;;;;;;;;;5112243;28;20415;-63
2021/11/15 08:30:20;;;;;;;14.20;7.35;;;;;;;;;;5105991;28;20491;-63
2021/11/15 08:32:46;;;;;;;9.05;5.80;;;;;;;;;;5105501;28;20039;-63
2021/11/15 08:35:13;;;;;;;9.48;4.60;;;;;;;;;;5109412;28;20045;-63
2021/11/15 08:37:58;;;;;;;11.75;5.72;;;;;;;;;;5109967;28;20024;-62
2021/11/15 08:40:24;;;;;;;9.48;5.70;;;;;;;;;;5094316;28;20023;-62
2021/11/15 08:42:50;;;;;;;10.82;5.93;;;;;;;;;;5113164;28;20530;-63
2021/11/15 08:45:17;;;;;;;10.48;5.70;;;;;;;;;;5110947;28;20035;-63
2021/11/15 08:47:43;;;;;;;9.27;5.68;;;;;;;;;;5109227;28;20054;-62
2021/11/15 08:50:09;;;;;;;9.10;6.38;;;;;;;;;;5100462;28;20063;-62
2021/11/15 08:52:35;;;;;;;7.50;5.20;;;;;;;;;;5109692;28;20121;-62
2021/11/15 08:55:01;;;;;;;10.90;5.30;;;;;;;;;;5111812;28;20031;-62
2021/11/15 08:57:27;;;;;;;9.10;5.18;;;;;;;;;;5109950;28;20030;-62
2021/11/15 08:59:55;;;;;;;8.60;5.00;;;;;;;;;;5109441;28;20482;-62
2021/11/15 09:02:21;;;;;;;6.72;4.05;;;;;;;;;;5109729;28;20035;-62
2021/11/15 09:04:47;;;;;;;8.63;4.25;;;;;;;;;;5108920;28;20035;-62
2021/11/15 09:07:13;;;;;;;6.95;4.30;;;;;;;;;;5110830;28;20019;-62
2021/11/15 09:09:40;;;;;;;13.75;5.28;;;;;;;;;;5111249;28;20028;-62
2021/11/15 09:12:08;;;;;;;12.40;8.05;;;;;;;;;;5109550;28;20028;-62
2021/11/15 09:14:34;;;;;;;;;;;;;;;;;;5112003;28;20023;-61
2021/11/15 09:17:00;;;;;;;12.15;8.45;;;;;;;;;;5108696;28;19912;-63
2021/11/15 09:19:26;;;;;;;10.70;7.15;;;;;;;;;;5109148;28;20493;-62
2021/11/15 09:21:54;;;;;;;16.13;6.90;;;;;;;;;;5112616;28;20024;-62
2021/11/15 09:24:20;;;;;;;15.30;5.05;;;;;;;;;;5109051;28;20038;-62
2021/11/15 09:26:48;;;;;;;8.07;4.43;;;;;;;;;;5108919;28;20027;-62
2021/11/15 09:29:15;;;;;;;7.43;4.07;;;;;;;;;;5108824;28;20028;-62
2021/11/15 09:31:41;;;;;;;10.57;4.55;;;;;;;;;;5108914;28;20115;-62
2021/11/15 09:34:07;;;;;;;10.38;4.90;;;;;;;;;;5110721;28;20463;-62
2021/11/15 09:36:34;;;;;;;8.85;5.22;;;;;;;;;;5108893;28;20111;-63
2021/11/15 09:39:00;;;;;;;9.05;4.70;;;;;;;;;;5109225;28;20028;-61
2021/11/15 09:41:27;;;;;;;8.43;4.70;;;;;;;;;;5110651;28;20943;-61
2021/11/15 09:43:53;;;;;;;10.13;4.80;;;;;;;;;;5109674;28;20103;-61
2021/11/15 09:46:21;;;;;;;7.55;4.80;;;;;;;;;;5110336;28;20066;-62
2021/11/15 09:48:49;;;;;;;9.02;5.20;;;;;;;;;;5111890;28;20015;-61
2021/11/15 09:51:15;;;;;;;11.63;4.75;;;;;;;;;;5107396;28;20509;-63
2021/11/15 09:53:41;;;;;;;8.95;4.95;;;;;;;;;;5109188;28;20059;-61
2021/11/15 09:56:09;;;;;;;11.15;4.93;;;;;;;;;;5105928;28;20043;-63
2021/11/15 09:58:36;;;;;;;11.43;5.82;;;;;;;;;;5109071;28;20514;-61
2021/11/15 10:01:03;;;;;;;10.10;4.93;;;;;;;;;;5110947;28;20028;-63
2021/11/15 10:03:29;;;;;;;9.73;5.68;;;;;;;;;;5112219;28;20356;-62
2021/11/15 10:05:55;;;;;;;9.57;6.30;;;;;;;;;;5108318;28;20124;-63
2021/11/15 10:08:21;;;;;;;8.70;5.40;;;;;;;;;;5107997;28;20396;-63
2021/11/15 10:10:56;;;;;;;8.38;5.57;;;;;;;;;;5108913;28;20471;-63
2021/11/15 10:13:27;;;;;;;10.00;5.78;;;;;;;;;;5094881;28;20115;-62
2021/11/15 10:15:57;;;;;;;12.85;6.35;;;;;;;;;;5108265;28;20077;-62
2021/11/15 10:18:43;;;;;;;12.82;5.82;;;;;;;;;;5109336;28;20039;-62
2021/11/15 10:21:25;;;;;;;10.93;5.90;;;;;;;;;;5108498;28;20437;-62
2021/11/15 10:24:04;;;;;;;9.20;5.60;;;;;;;;;;5107494;28;20023;-61
2021/11/15 10:26:32;;;;;;;10.52;5.75;;;;;;;;;;5108490;28;20020;-61
2021/11/15 10:29:05;;;;;;;7.57;4.17;;;;;;;;;;5108366;28;20022;-62
2021/11/15 10:31:35;;;;;;;8.73;4.45;;;;;;;;;;5108072;28;20285;-62
2021/11/15 10:34:03;;;;;;;10.85;5.15;;;;;;;;;;5110673;28;20027;-62
2021/11/15 10:36:48;;;;;;;7.90;5.13;;;;;;;;;;5108295;28;20039;-62
2021/11/15 10:39:15;;;;;;;5.47;2.33;;;;;;;;;;5106334;28;20079;-61
2021/11/15 10:41:41;;;;;;;2.63;1.50;;;;;;;;;;5106923;28;20040;-61
2021/11/15 10:44:12;;;;;;;5.88;2.20;;;;;;;;;;5109280;28;20028;-61
2021/11/15 10:46:41;;;;;;;4.15;1.60;;;;;;;;;;5106795;28;20103;-61
2021/11/15 10:49:08;;;;;;;5.22;1.85;;;;;;;;;;5110211;28;20546;-61
2021/11/15 10:51:48;;;;;;;5.47;2.70;;;;;;;;;;5111144;28;20034;-61
2021/11/15 10:54:27;;;;;;;4.32;2.38;;;;;;;;;;5106664;27;20020;-62
2021/11/15 10:56:54;;;;;;;4.55;2.33;;;;;;;;;;5108469;28;20031;-61
2021/11/15 10:59:22;;;;;;;4.35;2.42;;;;;;;;;;5111699;28;20027;-62
2021/11/15 11:01:48;;;;;;;5.40;2.75;;;;;;;;;;5111236;28;20110;-62
2021/11/15 11:04:17;;;;;;;7.82;2.95;;;;;;;;;;5113042;28;20059;-61
2021/11/15 11:07:02;;;;;;;5.22;3.05;;;;;;;;;;5114533;28;20038;-62
2021/11/15 11:09:47;;;;;;;6.05;3.10;;;;;;;;;;5114444;28;20023;-62
2021/11/15 11:12:20;;;;;;;7.97;3.88;;;;;;;;;;5111651;27;20035;-62
2021/11/15 11:14:49;;;;;;;6.13;3.00;;;;;;;;;;5113744;28;20093;-62
2021/11/15 11:17:15;;;;;;;5.53;3.10;;;;;;;;;;5111788;28;20030;-62
2021/11/15 11:20:24;;;;;;;6.18;3.10;;;;;;;;;;5111730;28;20012;-61
2021/11/15 11:25:47;;;;;;;7.70;3.42;;;;;;;;;;5111798;28;20024;-63
2021/11/15 11:28:33;;;;;;;6.85;3.30;;;;;;;;;;5112580;28;20028;-62
2021/11/15 11:31:00;;;;;;;8.02;3.40;;;;;;;;;;5110551;28;20118;-62
2021/11/15 11:33:28;;;;;;;9.60;3.50;;;;;;;;;;5093099;28;20072;-62
2021/11/15 11:35:54;;;;;;;;;;;;;;;;;;5108292;28;20044;-62
2021/11/15 11:38:20;;;;;;;5.20;3.10;;;;;;;;;;5094684;28;19965;-61
2021/11/15 11:40:47;;;;;;;6.63;3.40;;;;;;;;;;5096003;28;20072;-62
2021/11/15 11:43:13;;;;;;;5.00;3.05;;;;;;;;;;5110455;28;20034;-62
2021/11/15 11:45:40;;;;;;;8.50;2.90;;;;;;;;;;5107885;28;20053;-62
2021/11/15 11:48:06;;;;;;;5.38;2.88;;;;;;;;;;5109710;28;20383;-62
2021/11/15 11:50:33;;;;;;;6.68;3.17;;;;;;;;;;5110334;28;20095;-62
2021/11/15 11:53:22;;;;;;;10.68;3.08;;;;;;;;;;5108745;28;20050;-62
2021/11/15 11:55:48;;;;;;;5.13;3.35;;;;;;;;;;5098086;28;20111;-62
2021/11/15 11:58:29;;;;;;;7.70;3.28;;;;;;;;;;5093800;28;20489;-61
2021/11/15 12:01:06;;;;;;;5.22;3.30;;;;;;;;;;5108545;28;20042;-61
2021/11/15 12:03:33;;;;;;;5.93;3.45;;;;;;;;;;5109013;28;20040;-61
2021/11/15 12:06:00;;;;;;;7.53;3.17;;;;;;;;;;5108510;28;20023;-67
2021/11/15 12:08:49;;;;;;;7.22;3.30;;;;;;;;;;5109046;28;20034;-66
2021/11/15 12:11:35;;;;;;;7.82;3.40;;;;;;;;;;5087189;28;20055;-67
2021/11/15 12:14:01;;;;;;;6.50;3.70;;;;;;;;;;5110007;28;20024;-68
2021/11/15 12:16:46;;;;;;;7.90;4.40;;;;;;;;;;5108713;28;20039;-67
2021/11/15 12:19:11;;;;;;;11.30;4.82;;;;;;;;;;5111663;28;20182;-65
2021/11/15 12:21:38;;;;;;;8.43;4.50;;;;;;;;;;5112146;28;20103;-66
2021/11/15 12:24:07;;;;;;;4.97;2.90;;;;;;;;;;5108036;28;20015;-68
2021/11/15 12:26:37;;;;;;;4.50;2.90;;;;;;;;;;5109226;28;20111;-65
2021/11/15 12:29:16;;;;;;;6.13;3.28;;;;;;;;;;5109713;28;20012;-66
2021/11/15 12:31:42;;;;;;;8.02;3.28;;;;;;;;;;5109891;28;20313;-65
2021/11/15 12:34:08;;;;;;;5.53;3.00;;;;;;;;;;5110807;27;20016;-66
2021/11/15 12:36:40;;;;;;;9.68;4.43;;;;;;;;;;5111211;28;20050;-66
2021/11/15 12:39:17;;;;;;;6.63;4.43;;;;;;;;;;5109128;28;20068;-66
2021/11/15 12:41:49;;;;;;;7.20;4.70;;;;;;;;;;5109450;28;20060;-66
2021/11/15 12:44:36;;;;;;;10.20;5.20;;;;;;;;;;5108586;28;20032;-66
2021/11/15 12:47:03;;;;;;;9.52;4.38;;;;;;;;;;5108923;28;20063;-66
2021/11/15 12:49:36;;;;;;;10.13;4.43;;;;;;;;;;5108207;28;20016;-68
2021/11/15 12:52:08;;;;;;;6.03;3.83;;;;;;;;;;5110334;28;20020;-68
2021/11/15 12:54:36;;;;;;;5.57;3.53;;;;;;;;;;5108818;28;20024;-65
2021/11/15 12:57:03;;;;;;;7.97;3.42;;;;;;;;;;5106061;28;20027;-68
2021/11/15 12:59:29;;;;;;;5.93;3.10;;;;;;;;;;5108657;28;20098;-67
2021/11/15 13:01:54;;;;;;;5.38;2.85;;;;;;;;;;5109911;28;20503;-68
2021/11/15 13:04:21;;;;;;;5.22;2.83;;;;;;;;;;5100198;28;20019;-67
2021/11/15 13:06:47;;;;;;;5.22;2.70;;;;;;;;;;5111323;28;20367;-67
2021/11/15 13:09:15;;;;;;;5.25;3.00;;;;;;;;;;5108028;28;20046;-67
2021/11/15 13:11:45;;;;;;;5.60;3.38;;;;;;;;;;5107393;28;20015;-66
2021/11/15 13:14:12;;;;;;;5.82;3.20;;;;;;;;;;5108980;28;20036;-67
2021/11/15 13:16:38;;;;;;;5.83;3.30;;;;;;;;;;5108692;28;20055;-67
2021/11/15 13:19:04;;;;;;;10.10;4.68;;;;;;;;;;5110449;28;20035;-67
2021/11/15 13:21:30;;;;;;;8.43;4.75;;;;;;;;;;5109226;28;20032;-67
2021/11/15 13:23:56;;;;;;;7.72;4.97;;;;;;;;;;5108800;28;20027;-67
2021/11/15 13:26:23;;;;;;;9.20;5.47;;;;;;;;;;5109292;28;20471;-67
2021/11/15 13:28:49;;;;;;;8.55;4.88;;;;;;;;;;5109140;28;20069;-67
2021/11/15 13:31:15;;;;;;;12.45;4.95;;;;;;;;;;5109418;28;20514;-65
2021/11/15 13:33:41;;;;;;;9.07;5.03;;;;;;;;;;5111198;28;20024;-67
2021/11/15 13:36:07;;;;;;;9.43;4.07;;;;;;;;;;5108629;28;20123;-67
2021/11/15 13:38:34;;;;;;;9.23;4.45;;;;;;;;;;5109004;28;20485;-67
2021/11/15 13:41:00;;;;;;;11.77;4.53;;;;;;;;;;5108942;28;20034;-67
2021/11/15 13:43:27;;;;;;;7.60;4.68;;;;;;;;;;5110542;28;20383;-67
2021/11/15 13:45:54;;;;;;;12.48;5.45;;;;;;;;;;5111575;28;20062;-67
2021/11/15 13:48:21;;;;;;;9.38;5.00;;;;;;;;;;5109557;28;20112;-67
2021/11/15 13:50:48;;;;;;;12.15;6.75;;;;;;;;;;5108489;28;20081;-66
2021/11/15 13:53:14;;;;;;;13.93;5.65;;;;;;;;;;5108463;28;20035;-65
2021/11/15 13:55:40;;;;;;;7.38;4.25;;;;;;;;;;5108757;28;20028;-65
2021/11/15 13:58:06;;;;;;;6.13;3.42;;;;;;;;;;5110608;28;20026;-68
2021/11/15 14:00:33;;;;;;;12.43;5.55;;;;;;;;;;5109199;28;20023;-65
2021/11/15 14:02:59;;;;;;;14.32;5.28;;;;;;;;;;5108501;28;20423;-68
2021/11/15 14:05:25;;;;;;;10.55;5.93;;;;;;;;;;5108366;28;20032;-67
2021/11/15 14:07:51;;;;;;;10.55;5.97;;;;;;;;;;5108515;28;20089;-66
2021/11/15 14:10:17;;;;;;;10.57;6.95;;;;;;;;;;5108684;28;20414;-66
2021/11/15 14:12:43;;;;;;;12.52;6.30;;;;;;;;;;5110803;28;20020;-66
2021/11/15 14:15:11;;;;;;;10.30;5.15;;;;;;;;;;5110225;28;20124;-66
2021/11/15 14:17:37;;;;;;;13.43;7.93;;;;;;;;;;5108487;28;20023;-66
2021/11/15 14:20:04;;;;;;;15.73;9.05;;;;;;;;;;5108399;28;20054;-66
2021/11/15 14:22:30;;;;;;;17.00;7.85;;;;;;;;;;5107472;28;20024;-66
2021/11/15 14:24:56;;;;;;;11.73;7.80;;;;;;;;;;5110865;28;20031;-66
2021/11/15 14:27:22;;;;;;;10.93;6.15;;;;;;;;;;5111944;28;20015;-66
2021/11/15 14:29:48;;;;;;;11.90;5.95;;;;;;;;;;5112376;28;20024;-66
2021/11/15 14:32:15;;;;;;;7.43;4.75;;;;;;;;;;5111741;28;20048;-66
2021/11/15 14:34:47;;;;;;;8.45;5.35;;;;;;;;;;5112073;28;20032;-66
2021/11/15 14:37:16;;;;;;;10.68;5.47;;;;;;;;;;5113570;28;20044;-66
2021/11/15 14:39:41;;;;;;;;;;;;;;;;;;5115458;28;20024;-66
2021/11/15 14:42:08;;;;;;;12.27;6.40;;;;;;;;;;5106118;28;19915;-66